createdAt,value
2018-03-04T00:01:17.324Z,-5.89
2018-03-04T00:03:45.200Z,-5.87
2018-03-04T00:06:12.908Z,-5.99
2018-03-04T00:08:40.587Z,-5.91
2018-03-04T00:11:08.235Z,-5.94
2018-03-04T00:13:35.935Z,-6.08
2018-03-04T00:16:03.587Z,-6.12
2018-03-04T00:18:31.250Z,-6.07
2018-03-04T00:20:58.930Z,-6.08
2018-03-04T00:23:27.516Z,-6.14
2018-03-04T00:25:55.179Z,-6.21
2018-03-04T00:28:22.961Z,-6.22
2018-03-04T00:30:50.678Z,-6.18
2018-03-04T00:33:18.456Z,-6.31
2018-03-04T00:35:46.304Z,-6.33
2018-03-04T00:38:13.958Z,-6.46
2018-03-04T00:40:41.638Z,-6.57
2018-03-04T00:43:09.268Z,-6.49
2018-03-04T00:45:36.942Z,-6.62
2018-03-04T00:48:04.729Z,-6.57
2018-03-04T00:50:32.421Z,-6.61
2018-03-04T00:53:00.047Z,-6.63
2018-03-04T00:55:27.726Z,-6.65
2018-03-04T00:57:55.366Z,-6.74
2018-03-04T01:00:23.054Z,-6.75
2018-03-04T01:02:50.866Z,-6.70
2018-03-04T01:05:18.563Z,-6.62
2018-03-04T01:07:46.307Z,-6.71
2018-03-04T01:10:14.002Z,-6.63
2018-03-04T01:12:41.654Z,-6.73
2018-03-04T01:15:09.405Z,-6.81
2018-03-04T01:17:37.042Z,-6.85
2018-03-04T01:20:04.726Z,-6.75
2018-03-04T01:22:32.372Z,-6.67
2018-03-04T01:25:00.119Z,-6.75
2018-03-04T01:27:27.869Z,-6.64
2018-03-04T01:29:55.541Z,-6.69
2018-03-04T01:32:23.184Z,-6.68
2018-03-04T01:34:50.858Z,-6.77
2018-03-04T01:37:18.512Z,-6.81
2018-03-04T01:39:46.316Z,-6.77
2018-03-04T01:42:13.974Z,-6.71
2018-03-04T01:44:41.636Z,-6.71
2018-03-04T01:47:09.264Z,-6.70
2018-03-04T01:49:37.053Z,-6.72
2018-03-04T01:52:04.684Z,-6.70
2018-03-04T01:54:32.422Z,-6.70
2018-03-04T01:57:00.051Z,-6.58
2018-03-04T01:59:27.690Z,-6.65
2018-03-04T02:01:55.359Z,-6.65
2018-03-04T02:04:23.923Z,-6.52
2018-03-04T02:06:51.596Z,-6.69
2018-03-04T02:09:19.225Z,-6.59
2018-03-04T02:11:46.904Z,-6.58
2018-03-04T02:14:14.546Z,-6.38
2018-03-04T02:16:42.226Z,-6.26
2018-03-04T02:19:09.911Z,-6.35
2018-03-04T02:21:37.586Z,-6.34
2018-03-04T02:24:05.230Z,-6.35
2018-03-04T02:26:32.906Z,-6.52
2018-03-04T02:29:00.547Z,-6.57
2018-03-04T02:31:28.404Z,-6.57
2018-03-04T02:33:56.029Z,-6.50
2018-03-04T02:36:23.713Z,-6.53
2018-03-04T02:38:51.346Z,-6.57
2018-03-04T02:41:19.019Z,-6.53
2018-03-04T02:43:46.735Z,-6.60
2018-03-04T02:46:14.431Z,-6.64
2018-03-04T02:48:42.516Z,-6.68
2018-03-04T02:51:10.203Z,-6.60
2018-03-04T02:53:37.850Z,-6.64
2018-03-04T02:56:05.534Z,-6.61
2018-03-04T02:58:33.246Z,-6.67
2018-03-04T03:01:00.925Z,-6.63
2018-03-04T03:03:28.578Z,-6.83
2018-03-04T03:05:56.443Z,-6.80
2018-03-04T03:08:24.185Z,-6.87
2018-03-04T03:10:51.862Z,-6.95
2018-03-04T03:13:19.505Z,-6.93
2018-03-04T03:15:47.261Z,-6.95
2018-03-04T03:18:14.905Z,-7.00
2018-03-04T03:20:42.584Z,-7.05
2018-03-04T03:23:10.213Z,-7.08
2018-03-04T03:25:37.895Z,-7.10
2018-03-04T03:28:05.645Z,-7.16
2018-03-04T03:30:33.296Z,-7.21
2018-03-04T03:33:01.048Z,-7.30
2018-03-04T03:35:28.796Z,-7.37
2018-03-04T03:37:56.473Z,-7.44
2018-03-04T03:40:24.119Z,-7.11
2018-03-04T03:42:51.809Z,-7.03
2018-03-04T03:45:19.451Z,-7.00
2018-03-04T03:47:47.263Z,-6.94
2018-03-04T03:50:14.891Z,-6.83
2018-03-04T03:52:42.572Z,-6.84
2018-03-04T03:55:10.206Z,-6.77
2018-03-04T03:57:37.886Z,-6.95
2018-03-04T04:00:05.654Z,-6.90
2018-03-04T04:02:33.338Z,-6.89
2018-03-04T04:05:00.970Z,-6.80
2018-03-04T04:07:28.809Z,-6.84
2018-03-04T04:09:56.455Z,-6.77
2018-03-04T04:12:24.140Z,-6.69
2018-03-04T04:14:51.820Z,-6.76
2018-03-04T04:17:19.509Z,-6.59
2018-03-04T04:19:47.273Z,-6.60
2018-03-04T04:22:14.954Z,-6.48
2018-03-04T04:24:42.584Z,-6.37
2018-03-04T04:27:10.265Z,-6.35
2018-03-04T04:29:37.898Z,-6.33
2018-03-04T04:32:05.576Z,-6.24
2018-03-04T04:34:33.275Z,-6.17
2018-03-04T04:37:00.945Z,-6.21
2018-03-04T04:39:28.596Z,-6.02
2018-03-04T04:41:56.276Z,-5.99
2018-03-04T04:44:23.996Z,-5.98
2018-03-04T04:46:51.838Z,-5.92
2018-03-04T04:49:19.478Z,-5.86
2018-03-04T04:51:47.159Z,-5.81
2018-03-04T04:54:14.804Z,-5.82
2018-03-04T04:56:42.489Z,-5.80
2018-03-04T04:59:10.132Z,-5.76
2018-03-04T05:01:37.833Z,-5.79
2018-03-04T05:04:05.482Z,-5.79
2018-03-04T05:06:33.168Z,-5.81
2018-03-04T05:09:00.806Z,-5.88
2018-03-04T05:11:28.520Z,-5.77
2018-03-04T05:13:56.219Z,-5.78
2018-03-04T05:16:23.862Z,-5.81
2018-03-04T05:18:51.752Z,-5.72
2018-03-04T05:21:19.389Z,-5.75
2018-03-04T05:23:47.078Z,-5.63
2018-03-04T05:26:14.721Z,-5.62
2018-03-04T05:28:42.414Z,-5.68
2018-03-04T05:31:10.178Z,-5.64
2018-03-04T05:33:37.856Z,-5.67
2018-03-04T05:36:05.513Z,-5.60
2018-03-04T05:38:33.206Z,-5.53
2018-03-04T05:41:00.846Z,-5.56
2018-03-04T05:43:28.590Z,-5.48
2018-03-04T05:45:56.294Z,-5.57
2018-03-04T05:48:23.936Z,-5.48
2018-03-04T05:50:51.621Z,-5.55
2018-03-04T05:53:19.252Z,-5.45
2018-03-04T05:55:47.964Z,-5.47
2018-03-04T05:58:15.607Z,-5.32
2018-03-04T06:00:43.314Z,-5.31
2018-03-04T06:03:10.970Z,-5.23
2018-03-04T06:05:38.657Z,-5.27
2018-03-04T06:08:06.439Z,-5.30
2018-03-04T06:10:34.170Z,-5.16
2018-03-04T06:13:01.825Z,-5.13
2018-03-04T06:15:29.470Z,-5.11
2018-03-04T06:17:57.144Z,-5.10
2018-03-04T06:20:24.854Z,-5.01
2018-03-04T06:22:52.536Z,-4.97
2018-03-04T06:25:20.178Z,-4.88
2018-03-04T06:27:47.880Z,-5.00
2018-03-04T06:30:15.519Z,-4.88
2018-03-04T06:32:43.333Z,-4.87
2018-03-04T06:35:10.970Z,-4.90
2018-03-04T06:37:38.678Z,-4.75
2018-03-04T06:40:06.309Z,-4.78
2018-03-04T06:42:33.964Z,-4.72
2018-03-04T06:45:01.663Z,-4.73
2018-03-04T06:47:29.327Z,-4.75
2018-03-04T06:49:57.046Z,-4.73
2018-03-04T06:52:24.692Z,-4.67
2018-03-04T06:54:52.375Z,-4.48
2018-03-04T06:57:20.012Z,-4.50
2018-03-04T06:59:47.859Z,-4.46
2018-03-04T07:02:15.516Z,-4.58
2018-03-04T07:04:43.208Z,-4.51
2018-03-04T07:07:10.840Z,-4.56
2018-03-04T07:09:38.525Z,-4.45
2018-03-04T07:12:06.166Z,-4.35
2018-03-04T07:14:33.875Z,-4.27
2018-03-04T07:17:01.518Z,-4.13
2018-03-04T07:19:29.252Z,-4.22
2018-03-04T07:21:56.926Z,-4.19
2018-03-04T07:24:24.738Z,-4.19
2018-03-04T07:26:52.421Z,-4.08
2018-03-04T07:29:20.081Z,-4.19
2018-03-04T07:31:48.809Z,-4.09
2018-03-04T07:34:16.464Z,-4.11
2018-03-04T07:36:44.145Z,-4.15
2018-03-04T07:39:11.788Z,-4.08
2018-03-04T07:41:39.482Z,-4.02
2018-03-04T07:44:07.287Z,-4.03
2018-03-04T07:46:34.970Z,-3.99
2018-03-04T07:49:02.621Z,-3.77
2018-03-04T07:51:30.328Z,-3.64
2018-03-04T07:53:57.980Z,-3.80
2018-03-04T07:56:25.615Z,-3.74
2018-03-04T07:58:53.344Z,-3.64
2018-03-04T08:01:21.007Z,-3.57
2018-03-04T08:03:48.679Z,-3.49
2018-03-04T08:06:16.316Z,-3.49
2018-03-04T08:08:44.011Z,-3.44
2018-03-04T08:11:11.650Z,-3.47
2018-03-04T08:13:39.336Z,-3.28
2018-03-04T08:16:06.977Z,-3.28
2018-03-04T08:18:34.699Z,-3.24
2018-03-04T08:21:02.344Z,-3.12
2018-03-04T08:23:30.014Z,-3.11
2018-03-04T08:26:09.416Z,-3.09
2018-03-04T08:28:37.183Z,-2.88
2018-03-04T08:31:04.830Z,-2.76
2018-03-04T08:33:32.489Z,-2.80
2018-03-04T08:36:00.173Z,-2.68
2018-03-04T08:38:27.826Z,-2.65
2018-03-04T08:40:55.511Z,-2.58
2018-03-04T08:43:23.159Z,-2.46
2018-03-04T08:45:50.844Z,-2.47
2018-03-04T08:48:18.498Z,-2.39
2018-03-04T08:50:46.244Z,-2.29
2018-03-04T08:53:13.861Z,-2.16
2018-03-04T08:55:41.536Z,-2.13
2018-03-04T08:58:09.179Z,-2.12
2018-03-04T09:00:36.868Z,-2.17
2018-03-04T09:03:04.521Z,-2.11
2018-03-04T09:05:32.218Z,-1.89
2018-03-04T09:07:59.864Z,-1.70
2018-03-04T09:10:27.561Z,-1.35
2018-03-04T09:12:55.219Z,-1.41
2018-03-04T09:15:22.909Z,-1.29
2018-03-04T09:17:50.541Z,-1.21
2018-03-04T09:20:18.231Z,-0.91
2018-03-04T09:22:45.917Z,-0.94
2018-03-04T09:25:13.613Z,-1.00
2018-03-04T09:27:41.290Z,-0.91
2018-03-04T09:30:08.928Z,-0.83
2018-03-04T09:32:36.587Z,-0.93
2018-03-04T09:35:04.236Z,-0.99
2018-03-04T09:37:31.916Z,-0.86
2018-03-04T09:39:59.558Z,-0.69
2018-03-04T09:42:27.261Z,-0.74
2018-03-04T09:44:54.912Z,-0.53
2018-03-04T09:47:22.591Z,-0.29
2018-03-04T09:49:50.229Z,-0.42
2018-03-04T09:52:17.936Z,-0.55
2018-03-04T09:54:45.595Z,-0.37
2018-03-04T09:57:13.286Z,-0.18
2018-03-04T09:59:40.923Z,0.05
2018-03-04T10:02:08.628Z,0.01
2018-03-04T10:04:36.276Z,-0.07
2018-03-04T10:07:03.966Z,-0.34
2018-03-04T10:09:31.604Z,-0.08
2018-03-04T10:11:59.286Z,0.17
2018-03-04T10:14:26.938Z,0.34
2018-03-04T10:16:54.571Z,0.29
2018-03-04T10:19:22.258Z,0.54
2018-03-04T10:21:49.904Z,0.72
2018-03-04T10:24:17.563Z,0.57
2018-03-04T10:26:45.200Z,0.73
2018-03-04T10:29:12.874Z,0.89
2018-03-04T10:31:40.518Z,0.63
2018-03-04T10:34:08.209Z,0.86
2018-03-04T10:36:35.834Z,0.58
2018-03-04T10:39:03.503Z,0.72
2018-03-04T10:41:31.184Z,0.78
2018-03-04T10:43:58.870Z,0.91
2018-03-04T10:46:26.548Z,0.97
2018-03-04T10:48:54.366Z,1.08
2018-03-04T10:51:22.013Z,0.92
2018-03-04T10:53:49.724Z,1.04
2018-03-04T10:56:17.356Z,1.28
2018-03-04T10:58:45.035Z,1.26
2018-03-04T11:01:18.363Z,1.80
2018-03-04T11:03:46.068Z,1.35
2018-03-04T11:06:13.727Z,1.22
2018-03-04T11:08:41.424Z,1.21
2018-03-04T11:11:09.086Z,1.29
2018-03-04T11:13:36.859Z,1.53
2018-03-04T11:16:04.508Z,1.55
2018-03-04T11:18:32.153Z,2.04
2018-03-04T11:20:59.864Z,1.96
2018-03-04T11:23:27.512Z,1.69
2018-03-04T11:25:56.332Z,1.71
2018-03-04T11:28:24.005Z,1.89
2018-03-04T11:30:51.718Z,1.81
2018-03-04T11:33:19.390Z,1.76
2018-03-04T11:35:47.100Z,1.89
2018-03-04T11:38:14.765Z,1.80
2018-03-04T11:40:42.462Z,1.84
2018-03-04T11:43:10.126Z,2.21
2018-03-04T11:45:37.854Z,2.23
2018-03-04T11:48:05.553Z,2.22
2018-03-04T11:50:33.267Z,2.42
2018-03-04T11:53:00.891Z,2.30
2018-03-04T11:55:28.627Z,2.42
2018-03-04T11:57:56.401Z,2.23
2018-03-04T12:00:24.141Z,2.37
2018-03-04T12:02:51.812Z,2.53
2018-03-04T12:05:19.635Z,2.60
2018-03-04T12:07:47.312Z,2.75
2018-03-04T12:10:15.028Z,2.79
2018-03-04T12:12:42.708Z,3.06
2018-03-04T12:15:10.419Z,2.96
2018-03-04T12:17:38.149Z,3.10
2018-03-04T12:20:05.798Z,2.86
2018-03-04T12:22:33.510Z,2.74
2018-03-04T12:25:01.191Z,2.90
2018-03-04T12:27:28.902Z,2.91
2018-03-04T12:29:56.620Z,2.77
2018-03-04T12:32:24.337Z,2.77
2018-03-04T12:34:52.190Z,2.86
2018-03-04T12:37:19.890Z,2.65
2018-03-04T12:39:47.561Z,2.54
2018-03-04T12:42:15.454Z,2.58
2018-03-04T12:44:43.181Z,2.43
2018-03-04T12:47:10.889Z,2.39
2018-03-04T12:49:38.561Z,2.19
2018-03-04T12:52:06.256Z,2.09
2018-03-04T12:54:33.899Z,2.20
2018-03-04T12:57:01.607Z,2.26
2018-03-04T12:59:29.414Z,2.37
2018-03-04T13:01:57.187Z,2.45
2018-03-04T13:04:24.911Z,2.54
2018-03-04T13:06:52.570Z,2.67
2018-03-04T13:09:20.315Z,2.79
2018-03-04T13:11:48.021Z,3.27
2018-03-04T13:14:15.774Z,3.49
2018-03-04T13:16:43.446Z,3.71
2018-03-04T13:19:11.171Z,3.98
2018-03-04T13:21:38.845Z,3.75
2018-03-04T13:24:06.610Z,3.70
2018-03-04T13:26:34.247Z,3.65
2018-03-04T13:29:02.043Z,3.43
2018-03-04T13:31:29.774Z,3.46
2018-03-04T13:33:57.571Z,3.44
2018-03-04T13:36:25.343Z,3.57
2018-03-04T13:38:53.047Z,3.61
2018-03-04T13:41:20.725Z,3.75
2018-03-04T13:43:48.467Z,3.73
2018-03-04T13:46:16.158Z,3.68
2018-03-04T13:48:43.838Z,3.73
2018-03-04T13:51:11.626Z,3.73
2018-03-04T13:53:39.346Z,3.66
2018-03-04T13:56:07.146Z,3.67
2018-03-04T13:58:34.868Z,3.70
2018-03-04T14:01:02.700Z,3.82
2018-03-04T14:03:30.491Z,3.77
2018-03-04T14:05:58.290Z,3.81
2018-03-04T14:08:25.959Z,3.92
2018-03-04T14:10:53.653Z,3.93
2018-03-04T14:13:21.283Z,3.87
2018-03-04T14:15:49.003Z,3.91
2018-03-04T14:18:16.661Z,4.11
2018-03-04T14:20:44.356Z,4.02
2018-03-04T14:23:11.992Z,3.99
2018-03-04T14:25:39.675Z,4.06
2018-03-04T14:28:07.322Z,3.81
2018-03-04T14:30:35.070Z,3.94
2018-03-04T14:33:02.734Z,3.92
2018-03-04T14:35:30.409Z,4.11
2018-03-04T14:37:58.114Z,4.13
2018-03-04T14:40:25.786Z,4.13
2018-03-04T14:42:53.511Z,4.22
2018-03-04T14:45:21.283Z,4.25
2018-03-04T14:47:48.990Z,4.21
2018-03-04T14:50:16.734Z,4.21
2018-03-04T14:52:47.315Z,4.13
2018-03-04T14:55:14.949Z,4.03
2018-03-04T14:57:42.644Z,3.98
2018-03-04T15:00:10.302Z,4.16
2018-03-04T15:02:37.990Z,4.24
2018-03-04T15:05:05.720Z,4.05
2018-03-04T15:07:33.410Z,4.10
2018-03-04T15:10:01.082Z,4.02
2018-03-04T15:12:28.782Z,3.94
2018-03-04T15:14:56.503Z,3.90
2018-03-04T15:17:24.224Z,3.89
2018-03-04T15:19:51.887Z,3.87
2018-03-04T15:22:19.537Z,3.78
2018-03-04T15:24:47.236Z,3.72
2018-03-04T15:27:14.946Z,3.82
2018-03-04T15:29:42.728Z,3.87
2018-03-04T15:32:10.376Z,3.74
2018-03-04T15:34:38.100Z,3.67
2018-03-04T15:37:05.803Z,3.73
2018-03-04T15:39:33.534Z,3.80
2018-03-04T15:42:01.247Z,3.77
2018-03-04T15:44:28.966Z,3.74
2018-03-04T15:46:56.681Z,3.66
2018-03-04T15:49:24.378Z,3.70
2018-03-04T15:51:52.050Z,3.62
2018-03-04T15:54:19.744Z,3.67
2018-03-04T15:56:47.440Z,3.63
2018-03-04T15:59:15.176Z,3.53
2018-03-04T16:01:42.868Z,3.53
2018-03-04T16:04:10.511Z,3.55
2018-03-04T16:06:38.221Z,3.55
2018-03-04T16:09:05.854Z,3.53
2018-03-04T16:11:33.567Z,3.49
2018-03-04T16:14:01.190Z,3.49
2018-03-04T16:16:28.901Z,3.48
2018-03-04T16:18:56.623Z,3.46
2018-03-04T16:21:24.407Z,3.45
2018-03-04T16:23:52.126Z,3.44
2018-03-04T16:26:19.849Z,3.42
2018-03-04T16:28:47.584Z,3.44
2018-03-04T16:31:15.322Z,3.44
2018-03-04T16:33:43.045Z,3.44
2018-03-04T16:36:10.792Z,3.50
2018-03-04T16:38:38.566Z,3.52
2018-03-04T16:41:06.300Z,3.50
2018-03-04T16:43:34.055Z,3.49
2018-03-04T16:46:01.740Z,3.49
2018-03-04T16:48:29.498Z,3.55
2018-03-04T16:50:57.170Z,3.54
2018-03-04T16:53:24.970Z,3.56
2018-03-04T16:55:52.680Z,3.48
2018-03-04T16:58:20.432Z,3.45
2018-03-04T17:00:48.353Z,3.53
2018-03-04T17:03:16.134Z,3.49
2018-03-04T17:05:43.857Z,3.55
2018-03-04T17:08:11.570Z,3.51
2018-03-04T17:10:39.312Z,3.51
2018-03-04T17:13:07.103Z,3.55
2018-03-04T17:15:34.776Z,3.57
2018-03-04T17:18:02.482Z,3.60
2018-03-04T17:20:30.280Z,3.58
2018-03-04T17:22:57.936Z,3.58
2018-03-04T17:25:26.592Z,3.57
2018-03-04T17:27:54.296Z,3.62
2018-03-04T17:30:21.979Z,3.60
2018-03-04T17:32:49.663Z,3.57
2018-03-04T17:35:17.294Z,3.51
2018-03-04T17:37:46.209Z,3.55
2018-03-04T17:40:13.855Z,3.58
2018-03-04T17:42:41.512Z,3.52
2018-03-04T17:45:09.201Z,3.56
2018-03-04T17:47:36.897Z,3.62
2018-03-04T17:50:04.546Z,3.56
2018-03-04T17:52:32.271Z,3.51
2018-03-04T17:54:59.932Z,3.54
2018-03-04T17:57:27.615Z,3.50
2018-03-04T17:59:55.266Z,3.51
2018-03-04T18:02:22.962Z,3.48
2018-03-04T18:04:50.629Z,3.50
2018-03-04T18:07:18.319Z,3.48
2018-03-04T18:09:45.978Z,3.45
2018-03-04T18:12:13.701Z,3.47
2018-03-04T18:14:41.362Z,3.45
2018-03-04T18:17:09.214Z,3.38
2018-03-04T18:19:36.896Z,3.40
2018-03-04T18:22:04.646Z,3.40
2018-03-04T18:24:32.303Z,3.41
2018-03-04T18:27:00.083Z,3.35
2018-03-04T18:29:27.783Z,3.29
2018-03-04T18:31:55.462Z,3.31
2018-03-04T18:34:23.179Z,3.16
2018-03-04T18:36:50.863Z,3.06
2018-03-04T18:39:18.567Z,2.97
2018-03-04T18:41:46.368Z,2.96
2018-03-04T18:44:14.089Z,2.90
2018-03-04T18:46:41.747Z,2.86
2018-03-04T18:49:09.492Z,2.95
2018-03-04T18:51:37.150Z,2.89
2018-03-04T18:54:04.887Z,2.85
2018-03-04T18:56:32.615Z,2.92
2018-03-04T18:59:00.318Z,2.85
2018-03-04T19:01:28.011Z,2.80
2018-03-04T19:03:55.653Z,2.72
2018-03-04T19:06:23.367Z,2.69
2018-03-04T19:08:51.082Z,2.71
2018-03-04T19:11:18.792Z,2.69
2018-03-04T19:13:46.463Z,2.66
2018-03-04T19:16:14.195Z,2.69
2018-03-04T19:18:41.850Z,2.57
2018-03-04T19:21:09.570Z,2.60
2018-03-04T19:23:37.242Z,2.52
2018-03-04T19:26:05.007Z,2.43
2018-03-04T19:28:32.750Z,2.46
2018-03-04T19:31:00.511Z,2.42
2018-03-04T19:33:28.190Z,2.37
2018-03-04T19:35:55.929Z,2.40
2018-03-04T19:38:23.604Z,2.37
2018-03-04T19:40:51.280Z,2.43
2018-03-04T19:43:18.975Z,2.39
2018-03-04T19:45:46.663Z,2.37
2018-03-04T19:48:14.420Z,2.43
2018-03-04T19:50:42.144Z,2.49
2018-03-04T19:53:09.885Z,2.50
2018-03-04T19:55:37.591Z,2.41
2018-03-04T19:58:05.332Z,2.45
2018-03-04T20:00:33.011Z,2.41
2018-03-04T20:03:00.722Z,2.44
2018-03-04T20:05:28.441Z,2.35
2018-03-04T20:07:56.146Z,2.42
2018-03-04T20:10:23.856Z,2.45
2018-03-04T20:12:51.543Z,2.30
2018-03-04T20:15:19.202Z,2.32
2018-03-04T20:17:46.902Z,2.33
2018-03-04T20:20:14.615Z,2.22
2018-03-04T20:22:42.300Z,2.22
2018-03-04T20:25:10.000Z,2.12
2018-03-04T20:27:37.673Z,2.14
2018-03-04T20:30:05.394Z,2.05
2018-03-04T20:32:33.064Z,2.02
2018-03-04T20:35:00.794Z,2.04
2018-03-04T20:37:28.491Z,1.93
2018-03-04T20:39:56.172Z,1.87
2018-03-04T20:42:23.877Z,1.95
2018-03-04T20:44:51.570Z,1.93
2018-03-04T20:47:19.242Z,1.95
2018-03-04T20:49:46.950Z,1.96
2018-03-04T20:52:14.582Z,1.92
2018-03-04T20:54:42.253Z,1.84
2018-03-04T20:57:09.938Z,1.69
2018-03-04T20:59:37.621Z,1.71
2018-03-04T21:02:05.298Z,1.72
2018-03-04T21:04:32.976Z,1.65
2018-03-04T21:07:00.694Z,1.68
2018-03-04T21:09:28.357Z,1.70
2018-03-04T21:11:56.029Z,1.62
2018-03-04T21:14:23.786Z,1.70
2018-03-04T21:16:51.451Z,1.75
2018-03-04T21:19:19.201Z,1.72
2018-03-04T21:21:46.887Z,1.67
2018-03-04T21:24:14.659Z,1.62
2018-03-04T21:26:42.295Z,1.71
2018-03-04T21:29:10.018Z,1.72
2018-03-04T21:31:37.680Z,1.76
2018-03-04T21:34:05.423Z,1.85
2018-03-04T21:36:33.098Z,1.77
2018-03-04T21:39:00.823Z,1.80
2018-03-04T21:41:28.502Z,1.81
2018-03-04T21:43:56.251Z,1.70
2018-03-04T21:46:23.989Z,1.72
2018-03-04T21:48:51.642Z,1.73
2018-03-04T21:51:19.344Z,1.74
2018-03-04T21:53:47.022Z,1.69
2018-03-04T21:56:14.725Z,1.70
2018-03-04T21:58:43.235Z,1.63
2018-03-04T22:01:10.988Z,1.53
2018-03-04T22:03:38.650Z,1.59
2018-03-04T22:06:06.405Z,1.51
2018-03-04T22:08:34.079Z,1.55
2018-03-04T22:11:01.823Z,1.47
2018-03-04T22:13:29.521Z,1.37
2018-03-04T22:15:57.222Z,1.34
2018-03-04T22:18:24.947Z,1.32
2018-03-04T22:20:52.635Z,1.33
2018-03-04T22:23:20.290Z,1.37
2018-03-04T22:25:47.979Z,1.32
2018-03-04T22:28:15.642Z,1.33
2018-03-04T22:30:43.332Z,1.28
2018-03-04T22:33:11.015Z,1.35
2018-03-04T22:35:38.694Z,1.36
2018-03-04T22:38:06.333Z,1.31
2018-03-04T22:40:34.094Z,1.24
2018-03-04T22:43:01.766Z,1.22
2018-03-04T22:45:29.435Z,1.20
2018-03-04T22:47:57.202Z,1.28
2018-03-04T22:50:24.908Z,1.30
2018-03-04T22:52:52.546Z,1.31
2018-03-04T22:55:20.226Z,1.31
2018-03-04T22:57:47.862Z,1.21
2018-03-04T23:00:15.552Z,1.22
2018-03-04T23:02:43.210Z,1.20
2018-03-04T23:05:10.891Z,1.30
2018-03-04T23:07:38.585Z,1.26
2018-03-04T23:10:06.311Z,1.27
2018-03-04T23:12:33.944Z,1.25
2018-03-04T23:15:01.676Z,1.13
2018-03-04T23:17:29.422Z,1.17
2018-03-04T23:19:57.061Z,1.21
2018-03-04T23:22:24.792Z,1.20
2018-03-04T23:24:52.431Z,1.21
2018-03-04T23:27:20.099Z,1.20
2018-03-04T23:29:47.742Z,1.19
2018-03-04T23:32:15.413Z,1.21
2018-03-04T23:34:43.094Z,1.17
2018-03-04T23:37:10.762Z,1.22
2018-03-04T23:39:38.400Z,1.24
2018-03-04T23:42:06.130Z,1.27
2018-03-04T23:44:33.760Z,1.31
2018-03-04T23:47:01.450Z,1.24
2018-03-04T23:49:29.081Z,1.28
2018-03-04T23:51:56.758Z,1.24
2018-03-04T23:54:24.402Z,1.30
2018-03-04T23:56:52.078Z,1.34
2018-03-04T23:59:19.709Z,1.33
